sensor_id;sensor_type;location;lat;lon;timestamp;P1;durP1;ratioP1;P2;durP2;ratioP2
43809;SDS011;29440;48.208;11.162;2023-04-24T00:02:13;0.98;;;0.40;;
43809;SDS011;29440;48.208;11.162;2023-04-24T00:04:39;0.60;;;0.30;;
43809;SDS011;29440;48.208;11.162;2023-04-24T00:07:05;0.57;;;0.30;;
43809;SDS011;29440;48.208;11.162;2023-04-24T00:09:31;1.58;;;0.30;;
43809;SDS011;29440;48.208;11.162;2023-04-24T00:11:57;0.73;;;0.30;;
43809;SDS011;29440;48.208;11.162;2023-04-24T00:14:23;0.75;;;0.30;;
43809;SDS011;29440;48.208;11.162;2023-04-24T00:16:49;0.50;;;0.38;;
43809;SDS011;29440;48.208;11.162;2023-04-24T00:19:15;0.60;;;0.30;;
43809;SDS011;29440;48.208;11.162;2023-04-24T00:21:41;0.30;;;0.30;;
43809;SDS011;29440;48.208;11.162;2023-04-24T00:24:07;0.70;;;0.20;;
43809;SDS011;29440;48.208;11.162;2023-04-24T00:26:34;1.23;;;0.30;;
43809;SDS011;29440;48.208;11.162;2023-04-24T00:28:59;1.23;;;0.40;;
43809;SDS011;29440;48.208;11.162;2023-04-24T00:31:25;0.75;;;0.20;;
43809;SDS011;29440;48.208;11.162;2023-04-24T00:33:51;0.75;;;0.30;;
43809;SDS011;29440;48.208;11.162;2023-04-24T00:36:16;0.40;;;0.30;;
43809;SDS011;29440;48.208;11.162;2023-04-24T00:38:44;0.28;;;0.20;;
43809;SDS011;29440;48.208;11.162;2023-04-24T00:41:10;0.40;;;0.30;;
43809;SDS011;29440;48.208;11.162;2023-04-24T00:43:36;1.05;;;0.20;;
43809;SDS011;29440;48.208;11.162;2023-04-24T00:46:02;0.50;;;0.20;;
43809;SDS011;29440;48.208;11.162;2023-04-24T00:48:27;1.02;;;0.20;;
43809;SDS011;29440;48.208;11.162;2023-04-24T00:50:53;1.38;;;0.52;;
43809;SDS011;29440;48.208;11.162;2023-04-24T00:53:19;0.20;;;0.20;;
43809;SDS011;29440;48.208;11.162;2023-04-24T00:55:44;0.20;;;0.20;;
43809;SDS011;29440;48.208;11.162;2023-04-24T00:58:11;2.92;;;0.30;;
43809;SDS011;29440;48.208;11.162;2023-04-24T01:00:37;1.27;;;0.22;;
43809;SDS011;29440;48.208;11.162;2023-04-24T01:03:04;0.88;;;0.25;;
43809;SDS011;29440;48.208;11.162;2023-04-24T01:05:30;0.88;;;0.22;;
43809;SDS011;29440;48.208;11.162;2023-04-24T01:07:56;1.63;;;0.30;;
43809;SDS011;29440;48.208;11.162;2023-04-24T01:10:23;0.20;;;0.20;;
43809;SDS011;29440;48.208;11.162;2023-04-24T01:12:50;0.40;;;0.30;;
43809;SDS011;29440;48.208;11.162;2023-04-24T01:15:16;1.08;;;0.28;;
43809;SDS011;29440;48.208;11.162;2023-04-24T01:17:42;1.63;;;0.35;;
43809;SDS011;29440;48.208;11.162;2023-04-24T01:20:07;0.75;;;0.38;;
43809;SDS011;29440;48.208;11.162;2023-04-24T01:22:33;0.82;;;0.20;;
43809;SDS011;29440;48.208;11.162;2023-04-24T01:24:59;0.30;;;0.20;;
43809;SDS011;29440;48.208;11.162;2023-04-24T01:27:25;1.55;;;0.17;;
43809;SDS011;29440;48.208;11.162;2023-04-24T01:29:51;0.28;;;0.28;;
43809;SDS011;29440;48.208;11.162;2023-04-24T01:32:17;0.47;;;0.30;;
43809;SDS011;29440;48.208;11.162;2023-04-24T01:34:43;0.73;;;0.20;;
43809;SDS011;29440;48.208;11.162;2023-04-24T01:37:10;0.40;;;0.22;;
43809;SDS011;29440;48.208;11.162;2023-04-24T01:39:35;0.20;;;0.20;;
43809;SDS011;29440;48.208;11.162;2023-04-24T01:42:01;0.38;;;0.25;;
43809;SDS011;29440;48.208;11.162;2023-04-24T01:44:27;0.30;;;0.22;;
43809;SDS011;29440;48.208;11.162;2023-04-24T01:46:53;1.25;;;0.32;;
43809;SDS011;29440;48.208;11.162;2023-04-24T01:49:20;0.63;;;0.30;;
43809;SDS011;29440;48.208;11.162;2023-04-24T01:51:46;0.22;;;0.20;;
43809;SDS011;29440;48.208;11.162;2023-04-24T01:54:12;0.82;;;0.30;;
43809;SDS011;29440;48.208;11.162;2023-04-24T01:56:39;1.50;;;0.20;;
43809;SDS011;29440;48.208;11.162;2023-04-24T01:59:07;0.45;;;0.20;;
43809;SDS011;29440;48.208;11.162;2023-04-24T02:01:36;1.00;;;0.30;;
43809;SDS011;29440;48.208;11.162;2023-04-24T02:04:02;0.22;;;0.20;;
43809;SDS011;29440;48.208;11.162;2023-04-24T02:06:28;0.70;;;0.30;;
43809;SDS011;29440;48.208;11.162;2023-04-24T02:08:54;1.58;;;0.30;;
43809;SDS011;29440;48.208;11.162;2023-04-24T02:11:19;0.77;;;0.25;;
43809;SDS011;29440;48.208;11.162;2023-04-24T02:13:45;1.20;;;0.20;;
43809;SDS011;29440;48.208;11.162;2023-04-24T02:16:10;0.80;;;0.30;;
43809;SDS011;29440;48.208;11.162;2023-04-24T02:18:36;1.00;;;0.38;;
43809;SDS011;29440;48.208;11.162;2023-04-24T02:21:01;0.20;;;0.20;;
43809;SDS011;29440;48.208;11.162;2023-04-24T02:23:27;0.85;;;0.20;;
43809;SDS011;29440;48.208;11.162;2023-04-24T02:25:53;0.30;;;0.20;;
43809;SDS011;29440;48.208;11.162;2023-04-24T02:28:18;1.15;;;0.22;;
43809;SDS011;29440;48.208;11.162;2023-04-24T02:30:44;1.60;;;0.30;;
43809;SDS011;29440;48.208;11.162;2023-04-24T02:33:10;0.50;;;0.20;;
43809;SDS011;29440;48.208;11.162;2023-04-24T02:35:36;0.40;;;0.20;;
43809;SDS011;29440;48.208;11.162;2023-04-24T02:38:02;0.73;;;0.22;;
43809;SDS011;29440;48.208;11.162;2023-04-24T02:40:28;1.95;;;0.30;;
43809;SDS011;29440;48.208;11.162;2023-04-24T02:42:54;0.57;;;0.25;;
43809;SDS011;29440;48.208;11.162;2023-04-24T02:45:20;0.35;;;0.20;;
43809;SDS011;29440;48.208;11.162;2023-04-24T02:47:45;0.95;;;0.30;;
43809;SDS011;29440;48.208;11.162;2023-04-24T02:50:11;0.35;;;0.30;;
43809;SDS011;29440;48.208;11.162;2023-04-24T02:52:36;0.73;;;0.40;;
43809;SDS011;29440;48.208;11.162;2023-04-24T02:55:02;0.57;;;0.30;;
43809;SDS011;29440;48.208;11.162;2023-04-24T02:57:28;3.03;;;0.32;;
43809;SDS011;29440;48.208;11.162;2023-04-24T02:59:53;1.92;;;0.60;;
43809;SDS011;29440;48.208;11.162;2023-04-24T03:02:19;0.88;;;0.40;;
43809;SDS011;29440;48.208;11.162;2023-04-24T03:04:45;0.60;;;0.25;;
43809;SDS011;29440;48.208;11.162;2023-04-24T03:07:13;0.50;;;0.30;;
43809;SDS011;29440;48.208;11.162;2023-04-24T03:09:39;2.28;;;0.30;;
43809;SDS011;29440;48.208;11.162;2023-04-24T03:12:05;2.00;;;0.40;;
43809;SDS011;29440;48.208;11.162;2023-04-24T03:14:31;1.33;;;0.30;;
43809;SDS011;29440;48.208;11.162;2023-04-24T03:16:56;1.98;;;0.30;;
43809;SDS011;29440;48.208;11.162;2023-04-24T03:19:22;0.30;;;0.20;;
43809;SDS011;29440;48.208;11.162;2023-04-24T03:21:48;2.17;;;0.35;;
43809;SDS011;29440;48.208;11.162;2023-04-24T03:24:13;0.55;;;0.30;;
43809;SDS011;29440;48.208;11.162;2023-04-24T03:26:39;2.92;;;0.40;;
43809;SDS011;29440;48.208;11.162;2023-04-24T03:29:04;0.38;;;0.30;;
43809;SDS011;29440;48.208;11.162;2023-04-24T03:31:30;0.98;;;0.55;;
43809;SDS011;29440;48.208;11.162;2023-04-24T03:33:56;0.30;;;0.30;;
43809;SDS011;29440;48.208;11.162;2023-04-24T03:36:21;0.30;;;0.30;;
43809;SDS011;29440;48.208;11.162;2023-04-24T03:38:47;0.55;;;0.25;;
43809;SDS011;29440;48.208;11.162;2023-04-24T03:41:12;0.98;;;0.30;;
43809;SDS011;29440;48.208;11.162;2023-04-24T03:43:38;0.55;;;0.30;;
43809;SDS011;29440;48.208;11.162;2023-04-24T03:46:05;2.25;;;0.30;;
43809;SDS011;29440;48.208;11.162;2023-04-24T03:48:30;1.23;;;0.40;;
43809;SDS011;29440;48.208;11.162;2023-04-24T03:50:56;0.55;;;0.30;;
43809;SDS011;29440;48.208;11.162;2023-04-24T03:53:21;0.57;;;0.30;;
43809;SDS011;29440;48.208;11.162;2023-04-24T03:55:47;1.02;;;0.28;;
43809;SDS011;29440;48.208;11.162;2023-04-24T03:58:12;0.40;;;0.30;;
43809;SDS011;29440;48.208;11.162;2023-04-24T04:00:41;0.95;;;0.30;;
43809;SDS011;29440;48.208;11.162;2023-04-24T04:03:06;0.50;;;0.30;;
43809;SDS011;29440;48.208;11.162;2023-04-24T04:05:32;0.52;;;0.30;;
43809;SDS011;29440;48.208;11.162;2023-04-24T04:07:57;0.20;;;0.20;;
43809;SDS011;29440;48.208;11.162;2023-04-24T04:10:23;0.80;;;0.30;;
43809;SDS011;29440;48.208;11.162;2023-04-24T04:12:48;0.30;;;0.30;;
43809;SDS011;29440;48.208;11.162;2023-04-24T04:15:14;0.95;;;0.30;;
43809;SDS011;29440;48.208;11.162;2023-04-24T04:17:40;0.45;;;0.28;;
43809;SDS011;29440;48.208;11.162;2023-04-24T04:20:05;0.30;;;0.20;;
43809;SDS011;29440;48.208;11.162;2023-04-24T04:22:34;0.52;;;0.20;;
43809;SDS011;29440;48.208;11.162;2023-04-24T04:25:00;1.23;;;0.30;;
43809;SDS011;29440;48.208;11.162;2023-04-24T04:27:26;0.45;;;0.30;;
43809;SDS011;29440;48.208;11.162;2023-04-24T04:29:53;0.43;;;0.30;;
43809;SDS011;29440;48.208;11.162;2023-04-24T04:32:18;2.55;;;0.20;;
43809;SDS011;29440;48.208;11.162;2023-04-24T04:34:44;0.95;;;0.30;;
43809;SDS011;29440;48.208;11.162;2023-04-24T04:37:14;0.82;;;0.30;;
43809;SDS011;29440;48.208;11.162;2023-04-24T04:39:39;1.40;;;0.20;;
43809;SDS011;29440;48.208;11.162;2023-04-24T04:42:05;0.85;;;0.30;;
43809;SDS011;29440;48.208;11.162;2023-04-24T04:44:31;2.63;;;0.30;;
43809;SDS011;29440;48.208;11.162;2023-04-24T04:46:57;0.40;;;0.20;;
43809;SDS011;29440;48.208;11.162;2023-04-24T04:49:24;1.05;;;0.22;;
43809;SDS011;29440;48.208;11.162;2023-04-24T04:51:49;0.32;;;0.20;;
43809;SDS011;29440;48.208;11.162;2023-04-24T04:54:16;1.38;;;0.30;;
43809;SDS011;29440;48.208;11.162;2023-04-24T04:56:41;0.90;;;0.30;;
43809;SDS011;29440;48.208;11.162;2023-04-24T04:59:07;0.80;;;0.20;;
43809;SDS011;29440;48.208;11.162;2023-04-24T05:01:32;1.45;;;0.20;;
43809;SDS011;29440;48.208;11.162;2023-04-24T05:03:58;0.20;;;0.20;;
43809;SDS011;29440;48.208;11.162;2023-04-24T05:06:23;0.22;;;0.20;;
43809;SDS011;29440;48.208;11.162;2023-04-24T05:08:50;0.82;;;0.20;;
43809;SDS011;29440;48.208;11.162;2023-04-24T05:11:16;0.30;;;0.20;;
43809;SDS011;29440;48.208;11.162;2023-04-24T05:13:41;0.47;;;0.10;;
43809;SDS011;29440;48.208;11.162;2023-04-24T05:16:07;0.80;;;0.30;;
43809;SDS011;29440;48.208;11.162;2023-04-24T05:18:32;0.20;;;0.20;;
43809;SDS011;29440;48.208;11.162;2023-04-24T05:20:58;0.32;;;0.22;;
43809;SDS011;29440;48.208;11.162;2023-04-24T05:23:23;0.77;;;0.20;;
43809;SDS011;29440;48.208;11.162;2023-04-24T05:25:49;1.20;;;0.30;;
43809;SDS011;29440;48.208;11.162;2023-04-24T05:28:15;0.40;;;0.20;;
43809;SDS011;29440;48.208;11.162;2023-04-24T05:30:40;0.20;;;0.20;;
43809;SDS011;29440;48.208;11.162;2023-04-24T05:33:06;0.50;;;0.30;;
43809;SDS011;29440;48.208;11.162;2023-04-24T05:35:31;0.20;;;0.20;;
43809;SDS011;29440;48.208;11.162;2023-04-24T05:37:57;1.88;;;0.30;;
43809;SDS011;29440;48.208;11.162;2023-04-24T05:40:22;0.40;;;0.20;;
43809;SDS011;29440;48.208;11.162;2023-04-24T05:42:48;2.13;;;0.30;;
43809;SDS011;29440;48.208;11.162;2023-04-24T05:45:14;2.35;;;0.35;;
43809;SDS011;29440;48.208;11.162;2023-04-24T05:47:41;1.02;;;0.30;;
43809;SDS011;29440;48.208;11.162;2023-04-24T05:50:09;0.73;;;0.30;;
43809;SDS011;29440;48.208;11.162;2023-04-24T05:52:35;2.67;;;0.30;;
43809;SDS011;29440;48.208;11.162;2023-04-24T05:55:00;1.85;;;0.20;;
43809;SDS011;29440;48.208;11.162;2023-04-24T05:57:26;1.13;;;0.30;;
43809;SDS011;29440;48.208;11.162;2023-04-24T05:59:51;0.52;;;0.30;;
43809;SDS011;29440;48.208;11.162;2023-04-24T06:02:17;0.45;;;0.20;;
43809;SDS011;29440;48.208;11.162;2023-04-24T06:04:43;1.58;;;0.30;;
43809;SDS011;29440;48.208;11.162;2023-04-24T06:07:10;1.67;;;0.20;;
43809;SDS011;29440;48.208;11.162;2023-04-24T06:09:36;0.43;;;0.20;;
43809;SDS011;29440;48.208;11.162;2023-04-24T06:12:01;0.63;;;0.20;;
43809;SDS011;29440;48.208;11.162;2023-04-24T06:14:27;0.30;;;0.20;;
43809;SDS011;29440;48.208;11.162;2023-04-24T06:16:53;0.20;;;0.20;;
43809;SDS011;29440;48.208;11.162;2023-04-24T06:19:19;0.93;;;0.20;;
43809;SDS011;29440;48.208;11.162;2023-04-24T06:21:44;0.15;;;0.10;;
43809;SDS011;29440;48.208;11.162;2023-04-24T06:24:13;0.40;;;0.20;;
43809;SDS011;29440;48.208;11.162;2023-04-24T06:26:40;4.63;;;0.30;;
43809;SDS011;29440;48.208;11.162;2023-04-24T06:29:06;0.20;;;0.20;;
43809;SDS011;29440;48.208;11.162;2023-04-24T06:31:32;0.38;;;0.20;;
43809;SDS011;29440;48.208;11.162;2023-04-24T06:34:01;0.40;;;0.20;;
43809;SDS011;29440;48.208;11.162;2023-04-24T06:36:28;0.28;;;0.22;;
43809;SDS011;29440;48.208;11.162;2023-04-24T06:38:54;0.35;;;0.20;;
43809;SDS011;29440;48.208;11.162;2023-04-24T06:41:19;2.38;;;0.28;;
43809;SDS011;29440;48.208;11.162;2023-04-24T06:43:45;3.45;;;0.40;;
43809;SDS011;29440;48.208;11.162;2023-04-24T06:46:10;0.22;;;0.20;;
43809;SDS011;29440;48.208;11.162;2023-04-24T06:48:37;0.75;;;0.32;;
43809;SDS011;29440;48.208;11.162;2023-04-24T06:51:02;0.43;;;0.13;;
43809;SDS011;29440;48.208;11.162;2023-04-24T06:53:28;0.80;;;0.20;;
43809;SDS011;29440;48.208;11.162;2023-04-24T06:55:54;0.52;;;0.20;;
43809;SDS011;29440;48.208;11.162;2023-04-24T06:58:20;1.48;;;0.25;;
43809;SDS011;29440;48.208;11.162;2023-04-24T07:00:46;3.20;;;0.30;;
43809;SDS011;29440;48.208;11.162;2023-04-24T07:03:11;1.52;;;0.20;;
43809;SDS011;29440;48.208;11.162;2023-04-24T07:05:37;4.10;;;0.30;;
43809;SDS011;29440;48.208;11.162;2023-04-24T07:08:03;1.05;;;0.20;;
43809;SDS011;29440;48.208;11.162;2023-04-24T07:10:28;1.45;;;0.20;;
43809;SDS011;29440;48.208;11.162;2023-04-24T07:12:55;0.55;;;0.10;;
43809;SDS011;29440;48.208;11.162;2023-04-24T07:15:23;1.77;;;0.20;;
43809;SDS011;29440;48.208;11.162;2023-04-24T07:17:49;0.80;;;0.20;;
43809;SDS011;29440;48.208;11.162;2023-04-24T07:20:15;0.35;;;0.22;;
43809;SDS011;29440;48.208;11.162;2023-04-24T07:22:40;0.20;;;0.20;;
43809;SDS011;29440;48.208;11.162;2023-04-24T07:25:06;0.25;;;0.20;;
43809;SDS011;29440;48.208;11.162;2023-04-24T07:27:33;0.43;;;0.30;;
43809;SDS011;29440;48.208;11.162;2023-04-24T07:29:59;0.20;;;0.20;;
43809;SDS011;29440;48.208;11.162;2023-04-24T07:32:25;0.77;;;0.20;;
43809;SDS011;29440;48.208;11.162;2023-04-24T07:34:51;0.20;;;0.10;;
43809;SDS011;29440;48.208;11.162;2023-04-24T07:37:17;0.30;;;0.20;;
43809;SDS011;29440;48.208;11.162;2023-04-24T07:39:42;0.65;;;0.25;;
43809;SDS011;29440;48.208;11.162;2023-04-24T07:42:08;0.30;;;0.10;;
43809;SDS011;29440;48.208;11.162;2023-04-24T07:44:33;0.10;;;0.10;;
43809;SDS011;29440;48.208;11.162;2023-04-24T07:46:59;0.35;;;0.20;;
43809;SDS011;29440;48.208;11.162;2023-04-24T07:49:25;1.10;;;0.22;;
43809;SDS011;29440;48.208;11.162;2023-04-24T07:51:52;0.20;;;0.20;;
43809;SDS011;29440;48.208;11.162;2023-04-24T07:54:19;0.13;;;0.10;;
43809;SDS011;29440;48.208;11.162;2023-04-24T07:56:45;0.68;;;0.20;;
43809;SDS011;29440;48.208;11.162;2023-04-24T07:59:10;0.10;;;0.10;;
43809;SDS011;29440;48.208;11.162;2023-04-24T08:01:36;0.55;;;0.20;;
43809;SDS011;29440;48.208;11.162;2023-04-24T08:04:02;0.22;;;0.10;;
43809;SDS011;29440;48.208;11.162;2023-04-24T08:06:27;0.20;;;0.20;;
43809;SDS011;29440;48.208;11.162;2023-04-24T08:08:55;0.20;;;0.10;;
43809;SDS011;29440;48.208;11.162;2023-04-24T08:11:21;0.40;;;0.28;;
43809;SDS011;29440;48.208;11.162;2023-04-24T08:13:49;0.73;;;0.20;;
43809;SDS011;29440;48.208;11.162;2023-04-24T08:16:14;0.25;;;0.15;;
43809;SDS011;29440;48.208;11.162;2023-04-24T08:18:40;0.50;;;0.38;;
43809;SDS011;29440;48.208;11.162;2023-04-24T08:21:06;0.93;;;0.47;;
43809;SDS011;29440;48.208;11.162;2023-04-24T08:23:31;0.95;;;0.40;;
43809;SDS011;29440;48.208;11.162;2023-04-24T08:25:57;1.20;;;0.50;;
43809;SDS011;29440;48.208;11.162;2023-04-24T08:28:23;0.40;;;0.40;;
43809;SDS011;29440;48.208;11.162;2023-04-24T08:30:48;0.52;;;0.32;;
43809;SDS011;29440;48.208;11.162;2023-04-24T08:33:19;1.23;;;0.40;;
43809;SDS011;29440;48.208;11.162;2023-04-24T08:35:47;0.60;;;0.35;;
43809;SDS011;29440;48.208;11.162;2023-04-24T08:38:12;1.13;;;0.40;;
43809;SDS011;29440;48.208;11.162;2023-04-24T08:40:38;0.88;;;0.40;;
43809;SDS011;29440;48.208;11.162;2023-04-24T08:43:04;0.90;;;0.40;;
43809;SDS011;29440;48.208;11.162;2023-04-24T08:45:30;0.63;;;0.40;;
43809;SDS011;29440;48.208;11.162;2023-04-24T08:47:57;1.42;;;0.40;;
43809;SDS011;29440;48.208;11.162;2023-04-24T08:50:23;0.65;;;0.40;;
43809;SDS011;29440;48.208;11.162;2023-04-24T08:52:50;1.35;;;0.50;;
43809;SDS011;29440;48.208;11.162;2023-04-24T08:55:18;1.23;;;0.40;;
43809;SDS011;29440;48.208;11.162;2023-04-24T08:57:45;1.38;;;0.40;;
43809;SDS011;29440;48.208;11.162;2023-04-24T09:00:15;3.90;;;0.50;;
43809;SDS011;29440;48.208;11.162;2023-04-24T09:02:44;0.47;;;0.40;;
43809;SDS011;29440;48.208;11.162;2023-04-24T09:05:12;1.23;;;0.50;;
43809;SDS011;29440;48.208;11.162;2023-04-24T09:07:39;0.73;;;0.40;;
43809;SDS011;29440;48.208;11.162;2023-04-24T09:10:06;1.42;;;0.60;;
43809;SDS011;29440;48.208;11.162;2023-04-24T09:12:34;2.25;;;0.60;;
43809;SDS011;29440;48.208;11.162;2023-04-24T09:15:00;1.52;;;0.52;;
43809;SDS011;29440;48.208;11.162;2023-04-24T09:17:28;2.97;;;0.50;;
43809;SDS011;29440;48.208;11.162;2023-04-24T09:19:55;1.70;;;0.60;;
43809;SDS011;29440;48.208;11.162;2023-04-24T09:22:22;5.13;;;0.80;;
43809;SDS011;29440;48.208;11.162;2023-04-24T09:24:48;1.40;;;0.57;;
43809;SDS011;29440;48.208;11.162;2023-04-24T09:27:34;0.90;;;0.70;;
43809;SDS011;29440;48.208;11.162;2023-04-24T09:30:00;0.90;;;0.70;;
43809;SDS011;29440;48.208;11.162;2023-04-24T09:32:27;1.30;;;0.70;;
43809;SDS011;29440;48.208;11.162;2023-04-24T09:35:14;1.92;;;0.80;;
43809;SDS011;29440;48.208;11.162;2023-04-24T09:37:44;2.33;;;0.77;;
43809;SDS011;29440;48.208;11.162;2023-04-24T09:42:45;1.77;;;0.60;;
43809;SDS011;29440;48.208;11.162;2023-04-24T09:45:16;3.85;;;0.70;;
43809;SDS011;29440;48.208;11.162;2023-04-24T09:47:41;1.25;;;0.50;;
43809;SDS011;29440;48.208;11.162;2023-04-24T09:50:09;2.08;;;0.50;;
43809;SDS011;29440;48.208;11.162;2023-04-24T09:52:35;1.10;;;0.60;;
43809;SDS011;29440;48.208;11.162;2023-04-24T09:55:16;0.73;;;0.55;;
43809;SDS011;29440;48.208;11.162;2023-04-24T09:57:51;0.75;;;0.50;;
43809;SDS011;29440;48.208;11.162;2023-04-24T10:02:54;2.40;;;0.70;;
43809;SDS011;29440;48.208;11.162;2023-04-24T10:05:24;1.00;;;0.60;;
43809;SDS011;29440;48.208;11.162;2023-04-24T10:07:55;0.85;;;0.50;;
43809;SDS011;29440;48.208;11.162;2023-04-24T10:10:22;2.05;;;0.63;;
43809;SDS011;29440;48.208;11.162;2023-04-24T10:12:48;1.08;;;0.60;;
43809;SDS011;29440;48.208;11.162;2023-04-24T10:15:15;1.15;;;0.43;;
43809;SDS011;29440;48.208;11.162;2023-04-24T10:17:45;0.70;;;0.50;;
43809;SDS011;29440;48.208;11.162;2023-04-24T10:20:22;0.90;;;0.52;;
43809;SDS011;29440;48.208;11.162;2023-04-24T10:22:50;2.88;;;0.40;;
43809;SDS011;29440;48.208;11.162;2023-04-24T10:25:18;3.47;;;0.30;;
43809;SDS011;29440;48.208;11.162;2023-04-24T10:27:45;1.42;;;0.30;;
43809;SDS011;29440;48.208;11.162;2023-04-24T10:30:12;0.57;;;0.32;;
43809;SDS011;29440;48.208;11.162;2023-04-24T10:32:38;0.88;;;0.40;;
43809;SDS011;29440;48.208;11.162;2023-04-24T10:35:05;0.82;;;0.30;;
43809;SDS011;29440;48.208;11.162;2023-04-24T10:37:40;0.45;;;0.30;;
43809;SDS011;29440;48.208;11.162;2023-04-24T10:40:16;1.27;;;0.30;;
43809;SDS011;29440;48.208;11.162;2023-04-24T10:42:46;0.98;;;0.20;;
43809;SDS011;29440;48.208;11.162;2023-04-24T10:45:16;0.60;;;0.30;;
43809;SDS011;29440;48.208;11.162;2023-04-24T10:47:44;1.17;;;0.47;;
43809;SDS011;29440;48.208;11.162;2023-04-24T10:50:23;0.73;;;0.35;;
43809;SDS011;29440;48.208;11.162;2023-04-24T10:52:50;0.65;;;0.40;;
43809;SDS011;29440;48.208;11.162;2023-04-24T10:55:39;1.10;;;0.40;;
43809;SDS011;29440;48.208;11.162;2023-04-24T10:58:07;1.73;;;0.60;;
43809;SDS011;29440;48.208;11.162;2023-04-24T11:00:32;1.20;;;0.50;;
43809;SDS011;29440;48.208;11.162;2023-04-24T11:03:03;0.38;;;0.25;;
43809;SDS011;29440;48.208;11.162;2023-04-24T11:08:22;0.85;;;0.30;;
43809;SDS011;29440;48.208;11.162;2023-04-24T11:11:02;0.70;;;0.30;;
43809;SDS011;29440;48.208;11.162;2023-04-24T11:18:49;0.95;;;0.30;;
43809;SDS011;29440;48.208;11.162;2023-04-24T11:21:19;0.95;;;0.40;;
43809;SDS011;29440;48.208;11.162;2023-04-24T11:23:45;0.40;;;0.30;;
43809;SDS011;29440;48.208;11.162;2023-04-24T11:26:18;0.70;;;0.40;;
43809;SDS011;29440;48.208;11.162;2023-04-24T11:28:48;0.60;;;0.30;;
43809;SDS011;29440;48.208;11.162;2023-04-24T11:34:05;0.95;;;0.47;;
43809;SDS011;29440;48.208;11.162;2023-04-24T11:36:35;0.93;;;0.50;;
43809;SDS011;29440;48.208;11.162;2023-04-24T11:39:01;3.38;;;0.57;;
43809;SDS011;29440;48.208;11.162;2023-04-24T11:41:27;0.68;;;0.30;;
43809;SDS011;29440;48.208;11.162;2023-04-24T11:43:53;1.08;;;0.40;;
43809;SDS011;29440;48.208;11.162;2023-04-24T11:46:26;1.52;;;0.50;;
43809;SDS011;29440;48.208;11.162;2023-04-24T11:48:56;1.10;;;0.63;;
43809;SDS011;29440;48.208;11.162;2023-04-24T11:51:22;1.13;;;0.60;;
43809;SDS011;29440;48.208;11.162;2023-04-24T11:53:50;0.60;;;0.40;;
43809;SDS011;29440;48.208;11.162;2023-04-24T11:56:19;1.52;;;0.45;;
43809;SDS011;29440;48.208;11.162;2023-04-24T11:58:48;0.75;;;0.50;;
43809;SDS011;29440;48.208;11.162;2023-04-24T12:01:17;2.25;;;0.57;;
43809;SDS011;29440;48.208;11.162;2023-04-24T12:03:47;1.75;;;0.50;;
43809;SDS011;29440;48.208;11.162;2023-04-24T12:06:24;3.22;;;0.40;;
43809;SDS011;29440;48.208;11.162;2023-04-24T12:08:49;1.10;;;0.52;;
43809;SDS011;29440;48.208;11.162;2023-04-24T12:11:17;0.90;;;0.50;;
43809;SDS011;29440;48.208;11.162;2023-04-24T12:13:43;0.60;;;0.40;;
43809;SDS011;29440;48.208;11.162;2023-04-24T12:16:10;1.20;;;0.45;;
43809;SDS011;29440;48.208;11.162;2023-04-24T12:18:40;1.42;;;0.40;;
43809;SDS011;29440;48.208;11.162;2023-04-24T12:21:20;1.13;;;0.40;;
43809;SDS011;29440;48.208;11.162;2023-04-24T12:23:47;1.63;;;0.43;;
43809;SDS011;29440;48.208;11.162;2023-04-24T12:26:20;0.50;;;0.30;;
43809;SDS011;29440;48.208;11.162;2023-04-24T12:28:47;2.45;;;0.47;;
43809;SDS011;29440;48.208;11.162;2023-04-24T12:31:14;1.13;;;0.40;;
43809;SDS011;29440;48.208;11.162;2023-04-24T12:33:41;1.60;;;0.40;;
43809;SDS011;29440;48.208;11.162;2023-04-24T12:36:09;1.77;;;0.50;;
43809;SDS011;29440;48.208;11.162;2023-04-24T12:38:35;0.73;;;0.50;;
43809;SDS011;29440;48.208;11.162;2023-04-24T12:41:08;0.70;;;0.40;;
43809;SDS011;29440;48.208;11.162;2023-04-24T12:43:35;2.00;;;0.47;;
43809;SDS011;29440;48.208;11.162;2023-04-24T12:46:01;1.15;;;0.40;;
43809;SDS011;29440;48.208;11.162;2023-04-24T12:48:28;0.98;;;0.40;;
43809;SDS011;29440;48.208;11.162;2023-04-24T12:50:54;0.50;;;0.40;;
43809;SDS011;29440;48.208;11.162;2023-04-24T12:53:21;0.55;;;0.40;;
43809;SDS011;29440;48.208;11.162;2023-04-24T12:55:47;1.38;;;0.60;;
43809;SDS011;29440;48.208;11.162;2023-04-24T12:58:18;1.65;;;0.60;;
43809;SDS011;29440;48.208;11.162;2023-04-24T13:00:44;1.23;;;0.57;;
43809;SDS011;29440;48.208;11.162;2023-04-24T13:03:11;1.13;;;0.50;;
43809;SDS011;29440;48.208;11.162;2023-04-24T13:05:37;1.33;;;0.43;;
43809;SDS011;29440;48.208;11.162;2023-04-24T13:08:02;1.38;;;0.47;;
43809;SDS011;29440;48.208;11.162;2023-04-24T13:10:28;1.95;;;0.52;;
43809;SDS011;29440;48.208;11.162;2023-04-24T13:12:54;2.10;;;0.60;;
43809;SDS011;29440;48.208;11.162;2023-04-24T13:15:19;0.60;;;0.40;;
43809;SDS011;29440;48.208;11.162;2023-04-24T13:17:45;3.13;;;0.43;;
43809;SDS011;29440;48.208;11.162;2023-04-24T13:20:11;1.20;;;0.50;;
43809;SDS011;29440;48.208;11.162;2023-04-24T13:22:36;1.80;;;0.73;;
43809;SDS011;29440;48.208;11.162;2023-04-24T13:25:02;1.65;;;0.50;;
43809;SDS011;29440;48.208;11.162;2023-04-24T13:27:28;0.52;;;0.40;;
43809;SDS011;29440;48.208;11.162;2023-04-24T13:29:54;2.20;;;0.50;;
43809;SDS011;29440;48.208;11.162;2023-04-24T13:32:19;1.23;;;0.40;;
43809;SDS011;29440;48.208;11.162;2023-04-24T13:34:45;1.08;;;0.40;;
43809;SDS011;29440;48.208;11.162;2023-04-24T13:37:12;4.18;;;0.63;;
43809;SDS011;29440;48.208;11.162;2023-04-24T13:39:37;2.20;;;0.63;;
43809;SDS011;29440;48.208;11.162;2023-04-24T13:42:03;1.45;;;0.60;;
43809;SDS011;29440;48.208;11.162;2023-04-24T13:44:29;4.78;;;0.60;;
43809;SDS011;29440;48.208;11.162;2023-04-24T13:46:54;1.92;;;0.55;;
43809;SDS011;29440;48.208;11.162;2023-04-24T13:49:22;1.17;;;0.60;;
43809;SDS011;29440;48.208;11.162;2023-04-24T13:51:50;2.08;;;0.60;;
43809;SDS011;29440;48.208;11.162;2023-04-24T13:54:16;0.85;;;0.50;;
43809;SDS011;29440;48.208;11.162;2023-04-24T13:56:42;2.90;;;0.57;;
43809;SDS011;29440;48.208;11.162;2023-04-24T13:59:07;2.78;;;0.52;;
43809;SDS011;29440;48.208;11.162;2023-04-24T14:01:33;1.77;;;0.50;;
43809;SDS011;29440;48.208;11.162;2023-04-24T14:03:59;0.82;;;0.50;;
43809;SDS011;29440;48.208;11.162;2023-04-24T14:06:25;2.35;;;1.35;;
43809;SDS011;29440;48.208;11.162;2023-04-24T14:08:51;2.35;;;0.50;;
43809;SDS011;29440;48.208;11.162;2023-04-24T14:11:17;1.58;;;0.57;;
43809;SDS011;29440;48.208;11.162;2023-04-24T14:13:45;0.95;;;0.50;;
43809;SDS011;29440;48.208;11.162;2023-04-24T14:16:11;3.03;;;0.70;;
43809;SDS011;29440;48.208;11.162;2023-04-24T14:18:37;1.42;;;0.60;;
43809;SDS011;29440;48.208;11.162;2023-04-24T14:21:03;1.13;;;0.63;;
43809;SDS011;29440;48.208;11.162;2023-04-24T14:23:29;2.80;;;0.57;;
43809;SDS011;29440;48.208;11.162;2023-04-24T14:25:55;2.30;;;0.65;;
43809;SDS011;29440;48.208;11.162;2023-04-24T14:28:21;1.50;;;0.60;;
43809;SDS011;29440;48.208;11.162;2023-04-24T14:30:48;2.25;;;0.60;;
43809;SDS011;29440;48.208;11.162;2023-04-24T14:33:14;1.50;;;0.50;;
43809;SDS011;29440;48.208;11.162;2023-04-24T14:35:40;1.40;;;0.60;;
43809;SDS011;29440;48.208;11.162;2023-04-24T14:38:07;2.20;;;0.52;;
43809;SDS011;29440;48.208;11.162;2023-04-24T14:40:33;2.25;;;0.60;;
43809;SDS011;29440;48.208;11.162;2023-04-24T14:42:58;1.63;;;0.60;;
43809;SDS011;29440;48.208;11.162;2023-04-24T14:45:25;1.38;;;0.50;;
43809;SDS011;29440;48.208;11.162;2023-04-24T14:47:51;1.05;;;0.50;;